Time;durP1;ratioP1;P1;durP2;ratioP2;P2;SDS_P1;SDS_P2;PMS_P1;PMS_P2;Temp;Humidity;BMP_temperature;BMP_pressure;BME280_temperature;BME280_humidity;BME280_pressure;Samples;Min_cycle;Max_cycle;Signal;HPM_P1;HPM_P2
2022/05/17 00:02:24;;;;;;;;;;;13.80;99.90;;;;;;5053749;28;19935;-75
2022/05/17 00:04:50;;;;;;;;;;;13.80;99.90;;;;;;5053176;28;19959;-75
2022/05/17 00:07:19;;;;;;;;;;;13.70;99.90;;;;;;5046731;28;20003;-75
2022/05/17 00:09:46;;;;;;;;;;;14.00;99.90;;;;;;5051396;28;19920;-75
2022/05/17 00:12:13;;;;;;;;;;;13.70;99.90;;;;;;5046945;28;20385;-76
2022/05/17 00:14:39;;;;;;;;;;;13.70;99.90;;;;;;5052377;28;19933;-75
2022/05/17 00:17:06;;;;;;;;;;;13.60;99.90;;;;;;5046760;28;20330;-76
2022/05/17 00:19:33;;;;;;;;;;;13.60;99.90;;;;;;5047870;28;19925;-76
2022/05/17 00:22:00;;;;;;;;;;;13.50;99.90;;;;;;5048070;28;19920;-76
2022/05/17 00:24:28;;;;;;;;;;;13.50;99.90;;;;;;5046939;28;19959;-75
2022/05/17 00:26:55;;;;;;;;;;;13.50;99.90;;;;;;5047211;28;19999;-75
2022/05/17 00:29:21;;;;;;;;;;;13.50;99.90;;;;;;5042551;28;20001;-75
2022/05/17 00:31:48;;;;;;;;;;;14.60;99.90;;;;;;5052998;28;20035;-75
2022/05/17 00:34:15;;;;;;;;;;;13.50;99.90;;;;;;5054775;28;19998;-75
2022/05/17 00:36:42;;;;;;;;;;;13.40;99.90;;;;;;5046668;28;19989;-75
2022/05/17 00:39:09;;;;;;;;;;;13.40;99.90;;;;;;5046999;28;19925;-76
2022/05/17 00:41:37;;;;;;;;;;;13.40;99.90;;;;;;5048021;28;19931;-76
2022/05/17 00:46:49;;;;;;;;;;;13.30;99.90;;;;;;5035419;28;20142;-76
2022/05/17 00:49:25;;;;;;;;;;;13.30;99.90;;;;;;5046759;28;19924;-76
2022/05/17 00:51:53;;;;;;;;;;;13.30;99.90;;;;;;5043064;28;20305;-76
2022/05/17 00:54:19;;;;;;;;;;;13.30;99.90;;;;;;5047217;28;19935;-76
2022/05/17 00:56:55;;;;;;;;;;;13.20;99.90;;;;;;5047765;28;19925;-76
2022/05/17 00:59:22;;;;;;;;;;;13.20;99.90;;;;;;5047373;28;20281;-76
2022/05/17 01:01:49;;;;;;;;;;;13.10;99.90;;;;;;5046352;28;19928;-76
2022/05/17 01:04:17;;;;;;;;;;;13.10;99.90;;;;;;5044402;28;19947;-76
2022/05/17 01:06:46;;;;;;;;;;;13.10;99.90;;;;;;5045490;28;20254;-76
2022/05/17 01:09:13;;;;;;;;;;;13.10;99.90;;;;;;5048700;28;19932;-76
2022/05/17 01:11:40;;;;;;;;;;;13.00;99.90;;;;;;5032208;28;19968;-76
2022/05/17 01:16:54;;;;;;;;;;;13.00;99.90;;;;;;5044947;28;20696;-76
2022/05/17 01:19:20;;;;;;;;;;;13.00;99.90;;;;;;5044757;28;19921;-76
2022/05/17 01:21:48;;;;;;;;;;;12.90;99.90;;;;;;5046006;28;19951;-76
2022/05/17 01:24:15;;;;;;;;;;;12.90;99.90;;;;;;5046672;28;19994;-76
2022/05/17 01:26:43;;;;;;;;;;;12.90;99.90;;;;;;5045482;28;19935;-76
2022/05/17 01:29:10;;;;;;;;;;;12.80;99.90;;;;;;5046296;28;19935;-76
2022/05/17 01:31:38;;;;;;;;;;;13.10;99.90;;;;;;5046030;28;19929;-76
2022/05/17 01:34:05;;;;;;;;;;;12.80;99.90;;;;;;5048204;28;19921;-75
2022/05/17 01:36:32;;;;;;;;;;;14.50;99.90;;;;;;5039224;28;19931;-76
2022/05/17 01:39:00;;;;;;;;;;;12.70;99.90;;;;;;5046935;28;19940;-76
2022/05/17 01:41:27;;;;;;;;;;;12.70;99.90;;;;;;5049843;28;19955;-75
2022/05/17 01:43:54;;;;;;;;;;;12.70;99.90;;;;;;5047885;28;19931;-76
2022/05/17 01:46:21;;;;;;;;;;;12.70;99.90;;;;;;5046408;28;20243;-76
2022/05/17 01:48:49;;;;;;;;;;;12.70;99.90;;;;;;5045302;28;19925;-76
2022/05/17 01:51:16;;;;;;;;;;;12.60;99.90;;;;;;5048382;28;19925;-74
2022/05/17 01:53:43;;;;;;;;;;;12.60;99.90;;;;;;5049273;28;20335;-74
2022/05/17 01:56:11;;;;;;;;;;;12.60;99.90;;;;;;5047208;28;19966;-74
2022/05/17 01:58:38;;;;;;;;;;;12.60;99.90;;;;;;5057124;28;19929;-74
2022/05/17 02:01:07;;;;;;;;;;;12.50;99.90;;;;;;5054738;28;19972;-73
2022/05/17 02:03:34;;;;;;;;;;;12.50;99.90;;;;;;5047379;28;19921;-73
2022/05/17 02:06:01;;;;;;;;;;;12.50;99.90;;;;;;5049103;28;19963;-73
2022/05/17 02:08:27;;;;;;;;;;;12.40;99.90;;;;;;5045501;28;19935;-74
2022/05/17 02:10:54;;;;;;;;;;;12.40;99.90;;;;;;5045725;28;19933;-73
2022/05/17 02:13:22;;;;;;;;;;;12.40;99.90;;;;;;5051643;28;19972;-73
2022/05/17 02:15:49;;;;;;;;;;;12.40;99.90;;;;;;5043852;28;20301;-76
2022/05/17 02:18:15;;;;;;;;;;;12.30;99.90;;;;;;5044394;28;19947;-74
2022/05/17 02:20:42;;;;;;;;;;;12.30;99.90;;;;;;5078167;22;19927;-86
2022/05/17 02:23:12;;;;;;;;;;;12.40;99.90;;;;;;5058287;28;19969;-86
2022/05/17 02:25:39;;;;;;;;;;;12.30;99.90;;;;;;5058676;28;19928;-86
2022/05/17 02:28:10;;;;;;;;;;;12.30;99.90;;;;;;5077320;28;19962;-86
2022/05/17 02:30:40;;;;;;;;;;;12.30;99.90;;;;;;5076325;28;19990;-86
2022/05/17 02:33:07;;;;;;;;;;;12.30;99.90;;;;;;5060596;28;19989;-86
2022/05/17 02:35:34;;;;;;;;;;;12.20;99.90;;;;;;5072193;28;20010;-87
2022/05/17 02:38:00;;;;;;;;;;;12.30;99.90;;;;;;5085044;28;19920;-85
2022/05/17 02:40:27;;;;;;;;;;;12.20;99.90;;;;;;5060515;28;19944;-86
2022/05/17 02:42:54;;;;;;;;;;;12.20;99.90;;;;;;5064036;28;19924;-85
2022/05/17 02:45:21;;;;;;;;;;;12.20;99.90;;;;;;5082237;28;19928;-86
2022/05/17 02:47:50;;;;;;;;;;;12.20;99.90;;;;;;5063623;28;20241;-85
2022/05/17 02:50:17;;;;;;;;;;;12.20;99.90;;;;;;5077001;28;19940;-86
2022/05/17 02:52:44;;;;;;;;;;;12.20;99.90;;;;;;5080766;28;19952;-88
2022/05/17 02:55:11;;;;;;;;;;;12.10;99.90;;;;;;5046385;28;19921;-86
2022/05/17 02:57:38;;;;;;;;;;;12.00;99.90;;;;;;5040542;28;19948;-86
2022/05/17 03:00:08;;;;;;;;;;;12.00;99.90;;;;;;5077215;28;20076;-86
2022/05/17 03:02:35;;;;;;;;;;;12.00;99.90;;;;;;5043511;28;19921;-86
2022/05/17 03:05:05;;;;;;;;;;;11.90;99.90;;;;;;5078994;28;19939;-86
2022/05/17 03:07:32;;;;;;;;;;;11.90;99.90;;;;;;5080042;28;19960;-87
2022/05/17 03:09:59;;;;;;;;;;;12.00;99.90;;;;;;5068242;28;19927;-88
2022/05/17 03:12:26;;;;;;;;;;;12.00;99.90;;;;;;5070910;28;19966;-87
2022/05/17 03:14:53;;;;;;;;;;;12.00;99.90;;;;;;5071189;28;19920;-88
2022/05/17 03:17:20;;;;;;;;;;;12.00;99.90;;;;;;5089685;28;19959;-86
2022/05/17 03:19:48;;;;;;;;;;;12.00;99.90;;;;;;5085981;28;20109;-86
2022/05/17 03:22:17;;;;;;;;;;;12.00;99.90;;;;;;5068136;28;19920;-87
2022/05/17 03:24:44;;;;;;;;;;;12.00;99.90;;;;;;5064159;28;19924;-87
2022/05/17 03:27:11;;;;;;;;;;;12.00;99.90;;;;;;5086258;28;19920;-86
2022/05/17 03:29:38;;;;;;;;;;;12.10;99.90;;;;;;5068205;28;19988;-88
2022/05/17 03:32:14;;;;;;;;;;;13.20;99.90;;;;;;5079700;28;19909;-88
2022/05/17 03:34:41;;;;;;;;;;;12.20;99.90;;;;;;5078779;28;19936;-89
2022/05/17 03:37:08;;;;;;;;;;;12.20;99.90;;;;;;5077564;28;19908;-88
2022/05/17 03:39:42;;;;;;;;;;;12.20;99.90;;;;;;5088674;28;20113;-86
2022/05/17 03:50:09;;;;;;;;;;;12.30;99.90;;;;;;4827657;29;20415;-90
2022/05/17 03:53:04;;;;;;;;;;;12.40;99.90;;;;;;4828337;29;20692;-90
2022/05/17 03:55:37;;;;;;;;;;;12.40;99.90;;;;;;4816965;29;19923;-89
2022/05/17 03:58:12;;;;;;;;;;;12.50;99.90;;;;;;4887197;28;20286;-88
2022/05/17 04:00:39;;;;;;;;;;;12.50;99.90;;;;;;4943223;28;19947;-88
2022/05/17 04:03:07;;;;;;;;;;;12.70;99.90;;;;;;4984528;28;19920;-89
2022/05/17 04:05:34;;;;;;;;;;;12.70;99.90;;;;;;4987701;28;19928;-89
2022/05/17 04:08:01;;;;;;;;;;;12.80;99.90;;;;;;4990515;28;19935;-88
2022/05/17 04:10:27;;;;;;;;;;;12.90;99.90;;;;;;5019491;28;19931;-88
2022/05/17 04:12:56;;;;;;;;;;;13.00;99.90;;;;;;4993054;28;20025;-86
2022/05/17 04:15:23;;;;;;;;;;;13.10;99.90;;;;;;5057503;28;19925;-86
2022/05/17 04:17:54;;;;;;;;;;;13.20;99.90;;;;;;5055010;28;20011;-86
2022/05/17 04:20:21;;;;;;;;;;;13.40;99.90;;;;;;5074641;28;19924;-87
2022/05/17 04:22:49;;;;;;;;;;;13.40;99.90;;;;;;5037468;28;20411;-90
2022/05/17 04:25:17;;;;;;;;;;;13.60;99.90;;;;;;5012041;28;19952;-89
2022/05/17 04:27:46;;;;;;;;;;;14.00;99.90;;;;;;5083316;28;19942;-89
2022/05/17 04:30:15;;;;;;;;;;;13.70;99.90;;;;;;5063081;28;19920;-89
2022/05/17 04:32:42;;;;;;;;;;;13.80;99.90;;;;;;5061989;28;19976;-92
2022/05/17 04:38:18;;;;;;;;;;;14.00;99.90;;;;;;5058786;28;19952;-90
2022/05/17 04:40:44;;;;;;;;;;;14.20;99.90;;;;;;5060687;28;19920;-91
2022/05/17 04:43:15;;;;;;;;;;;14.30;99.90;;;;;;5072595;28;19924;-91
2022/05/17 04:45:45;;;;;;;;;;;14.40;99.90;;;;;;5066359;28;19943;-91
2022/05/17 04:48:11;;;;;;;;;;;14.50;99.90;;;;;;5059123;28;20742;-92
2022/05/17 04:50:39;;;;;;;;;;;14.70;99.90;;;;;;5058987;28;19920;-91
2022/05/17 04:53:06;;;;;;;;;;;14.80;99.90;;;;;;5073404;28;19945;-92
2022/05/17 04:55:32;;;;;;;;;;;14.80;99.90;;;;;;5077371;28;19971;-92
2022/05/17 04:57:59;;;;;;;;;;;14.90;99.90;;;;;;5061686;28;19927;-91
2022/05/17 05:00:27;;;;;;;;;;;15.10;99.90;;;;;;5064877;28;19920;-91
2022/05/17 05:02:55;;;;;;;;;;;15.10;99.90;;;;;;5068487;28;19920;-91
2022/05/17 05:05:23;;;;;;;;;;;15.20;99.90;;;;;;5065949;28;19992;-89
2022/05/17 05:07:50;;;;;;;;;;;15.40;99.90;;;;;;5061052;28;19955;-91
2022/05/17 05:10:17;;;;;;;;;;;15.50;99.90;;;;;;5073583;28;19921;-91
2022/05/17 05:12:43;;;;;;;;;;;15.70;99.90;;;;;;5074107;28;19935;-91
2022/05/17 05:15:11;;;;;;;;;;;15.80;99.90;;;;;;5074692;28;19928;-91
2022/05/17 05:17:38;;;;;;;;;;;16.00;99.90;;;;;;5057770;28;19921;-91
2022/05/17 05:20:08;;;;;;;;;;;16.10;99.90;;;;;;5056260;28;19950;-91
2022/05/17 05:22:35;;;;;;;;;;;16.20;99.90;;;;;;5056747;28;19920;-91
2022/05/17 05:25:02;;;;;;;;;;;16.40;99.90;;;;;;5056567;28;19983;-91
2022/05/17 05:27:32;;;;;;;;;;;16.50;99.90;;;;;;5056875;28;19924;-91
2022/05/17 05:30:00;;;;;;;;;;;16.40;99.90;;;;;;5057049;28;19944;-91
2022/05/17 05:32:27;;;;;;;;;;;16.70;99.90;;;;;;5056523;28;20419;-91
2022/05/17 05:34:54;;;;;;;;;;;16.80;99.90;;;;;;5055473;28;19932;-92
2022/05/17 05:37:22;;;;;;;;;;;16.90;99.90;;;;;;5056383;28;20031;-92
2022/05/17 05:39:49;;;;;;;;;;;17.00;99.90;;;;;;5058216;28;19965;-90
2022/05/17 05:42:16;;;;;;;;;;;15.80;99.90;;;;;;5055300;28;20026;-91
2022/05/17 05:44:42;;;;;;;;;;;17.30;99.90;;;;;;5075032;28;19928;-91
2022/05/17 05:47:09;;;;;;;;;;;17.40;99.90;;;;;;5057526;28;19924;-91
2022/05/17 05:49:40;;;;;;;;;;;17.50;99.90;;;;;;5056604;28;19921;-91
2022/05/17 05:52:08;;;;;;;;;;;17.60;99.90;;;;;;5074389;28;19920;-91
2022/05/17 05:54:36;;;;;;;;;;;17.90;99.90;;;;;;5057552;28;19921;-91
2022/05/17 05:57:09;;;;;;;;;;;17.90;99.90;;;;;;5058208;28;19959;-91
2022/05/17 05:59:36;;;;;;;;;;;19.10;99.90;;;;;;5076097;28;20039;-91
2022/05/17 06:02:03;;;;;;;;;;;18.00;99.90;;;;;;5068681;28;19924;-92
2022/05/17 06:04:30;;;;;;;;;;;17.30;99.90;;;;;;5076827;28;19928;-92
2022/05/17 06:07:02;;;;;;;;;;;18.10;99.90;;;;;;5059839;28;19932;-91
2022/05/17 06:09:32;;;;;;;;;;;14.70;99.90;;;;;;5077232;28;19934;-91
2022/05/17 06:12:01;;;;;;;;;;;18.50;99.90;;;;;;5065982;28;19924;-91
2022/05/17 06:14:29;;;;;;;;;;;18.70;99.90;;;;;;5060780;28;19924;-91
2022/05/17 06:16:56;;;;;;;;;;;18.90;99.90;;;;;;5059384;28;19920;-92
2022/05/17 06:19:24;;;;;;;;;;;19.00;99.90;;;;;;5061059;28;19928;-92
2022/05/17 06:21:51;;;;;;;;;;;19.20;99.90;;;;;;5061772;28;19931;-91
2022/05/17 06:24:19;;;;;;;;;;;22.40;99.90;;;;;;5063110;28;19931;-91
2022/05/17 06:26:46;;;;;;;;;;;19.50;99.90;;;;;;5079613;28;19959;-91
2022/05/17 06:29:14;;;;;;;;;;;19.70;99.90;;;;;;5063705;28;20426;-91
2022/05/17 06:31:41;;;;;;;;;;;20.00;99.90;;;;;;5065695;28;19920;-92
2022/05/17 06:34:09;;;;;;;;;;;20.00;99.90;;;;;;5065352;28;19954;-91
2022/05/17 06:36:36;;;;;;;;;;;20.30;99.90;;;;;;5066125;28;20333;-92
2022/05/17 06:39:08;;;;;;;;;;;20.40;99.90;;;;;;5082173;28;19925;-91
2022/05/17 06:41:36;;;;;;;;;;;20.60;99.90;;;;;;5078737;28;19990;-92
2022/05/17 06:44:03;;;;;;;;;;;20.70;99.90;;;;;;5065240;28;19928;-91
2022/05/17 06:46:32;;;;;;;;;;;20.80;99.90;;;;;;5066374;28;19989;-91
2022/05/17 06:48:59;;;;;;;;;;;20.90;99.90;;;;;;5067702;28;19926;-91
2022/05/17 06:51:26;;;;;;;;;;;20.90;99.90;;;;;;5063263;28;19920;-90
2022/05/17 06:53:53;;;;;;;;;;;21.10;99.90;;;;;;5061111;28;20351;-89
2022/05/17 06:56:20;;;;;;;;;;;21.10;99.90;;;;;;5077077;28;19908;-89
2022/05/17 06:58:47;;;;;;;;;;;21.50;99.90;;;;;;5078781;28;19920;-92
2022/05/17 07:01:16;;;;;;;;;;;21.90;99.90;;;;;;5059614;28;19924;-90
2022/05/17 07:03:44;;;;;;;;;;;22.50;99.90;;;;;;5078585;28;19920;-91
2022/05/17 07:06:11;;;;;;;;;;;23.20;99.90;;;;;;5061693;28;19920;-91
2022/05/17 07:08:45;;;;;;;;;;;23.60;99.90;;;;;;5072935;28;19920;-91
2022/05/17 07:13:56;;;;;;;;;;;23.60;99.90;;;;;;5064055;28;19920;-91
2022/05/17 07:16:23;;;;;;;;;;;23.70;99.90;;;;;;5087205;28;20027;-92
2022/05/17 07:18:52;;;;;;;;;;;23.80;99.90;;;;;;5094749;28;19924;-91
2022/05/17 07:21:18;;;;;;;;;;;23.80;99.90;;;;;;5078177;28;19915;-92
2022/05/17 07:23:45;;;;;;;;;;;23.80;99.90;;;;;;5076020;28;19984;-92
2022/05/17 07:26:13;;;;;;;;;;;23.80;99.90;;;;;;5076196;28;20330;-90
2022/05/17 07:28:40;;;;;;;;;;;23.50;99.90;;;;;;5076996;28;19909;-93
2022/05/17 07:31:10;;;;;;;;;;;23.60;99.90;;;;;;5077048;28;19957;-93
2022/05/17 07:36:34;;;;;;;;;;;23.50;99.90;;;;;;5091116;27;19912;-73
2022/05/17 07:39:01;;;;;;;;;;;23.70;99.90;;;;;;5094772;28;19924;-74
2022/05/17 07:41:28;;;;;;;;;;;24.10;99.90;;;;;;5091584;28;19959;-74
2022/05/17 07:43:55;;;;;;;;;;;24.60;99.90;;;;;;5100493;28;19928;-74
2022/05/17 07:46:21;;;;;;;;;;;24.90;99.90;;;;;;5092698;28;20348;-74
2022/05/17 07:48:48;;;;;;;;;;;25.00;99.90;;;;;;5084975;28;19925;-74
2022/05/17 07:51:15;;;;;;;;;;;25.10;99.90;;;;;;5095889;28;19939;-74
2022/05/17 07:53:43;;;;;;;;;;;25.30;99.90;;;;;;5093081;28;19935;-73
2022/05/17 07:56:10;;;;;;;;;;;25.70;99.90;;;;;;5090799;28;19924;-74
2022/05/17 07:58:37;;;;;;;;;;;26.10;99.90;;;;;;5093366;28;20419;-74
2022/05/17 08:01:04;;;;;;;;;;;26.40;99.90;;;;;;5093120;28;19928;-76
2022/05/17 08:03:31;;;;;;;;;;;26.50;99.90;;;;;;5097907;28;19985;-76
2022/05/17 08:05:58;;;;;;;;;;;26.40;99.90;;;;;;5081826;28;19936;-74
2022/05/17 08:08:25;;;;;;;;;;;26.50;99.90;;;;;;5090834;28;19929;-73
2022/05/17 08:10:53;;;;;;;;;;;26.50;99.90;;;;;;5100865;27;19939;-77
2022/05/17 08:13:21;;;;;;;;;;;26.40;99.90;;;;;;5091278;28;19928;-76
2022/05/17 08:15:48;;;;;;;;;;;26.30;99.90;;;;;;5097357;28;20398;-78
2022/05/17 08:18:15;;;;;;;;;;;26.20;99.90;;;;;;5096819;28;19933;-76
2022/05/17 08:20:44;;;;;;;;;;;26.10;99.90;;;;;;5100128;22;19941;-76
2022/05/17 08:23:11;;;;;;;;;;;26.20;99.90;;;;;;5089769;28;19950;-77
2022/05/17 08:28:20;;;;;;;;;;;26.80;99.90;;;;;;5060752;28;20051;-76
2022/05/17 08:30:47;;;;;;;;;;;27.00;99.90;;;;;;5083736;28;19932;-76
2022/05/17 08:33:18;;;;;;;;;;;27.20;99.90;;;;;;5082357;28;20023;-76
2022/05/17 08:35:49;;;;;;;;;;;27.40;99.90;;;;;;5057674;28;19932;-76
2022/05/17 08:38:17;;;;;;;;;;;27.40;99.90;;;;;;5064276;28;20584;-78
2022/05/17 08:40:51;;;;;;;;;;;27.40;99.90;;;;;;5075101;28;19928;-76
2022/05/17 08:43:23;;;;;;;;;;;27.40;99.90;;;;;;5066080;28;19928;-76
2022/05/17 08:45:57;;;;;;;;;;;27.10;99.90;;;;;;5068415;28;19932;-76
2022/05/17 08:48:25;;;;;;;;;;;26.90;99.90;;;;;;5065603;28;19982;-77
2022/05/17 08:50:52;;;;;;;;;;;26.80;99.90;;;;;;5050433;28;20350;-76
2022/05/17 08:53:19;;;;;;;;;;;26.50;99.90;;;;;;5051033;28;20598;-76
2022/05/17 08:55:47;;;;;;;;;;;26.40;99.90;;;;;;5054850;28;20091;-75
2022/05/17 08:58:18;;;;;;;;;;;26.30;99.90;;;;;;5052919;28;19929;-76
2022/05/17 09:00:48;;;;;;;;;;;26.10;99.90;;;;;;5049810;28;20333;-76
2022/05/17 09:03:25;;;;;;;;;;;25.90;99.90;;;;;;5049156;28;19933;-76
2022/05/17 09:05:56;;;;;;;;;;;25.80;99.90;;;;;;5050262;28;19929;-76
2022/05/17 09:08:27;;;;;;;;;;;25.70;99.90;;;;;;5048770;28;19982;-76
2022/05/17 09:10:56;;;;;;;;;;;25.70;99.90;;;;;;5066273;28;19931;-75
2022/05/17 09:13:26;;;;;;;;;;;25.80;99.90;;;;;;5066998;28;19928;-76
2022/05/17 09:15:55;;;;;;;;;;;25.90;99.90;;;;;;5050235;28;19994;-75
2022/05/17 09:18:23;;;;;;;;;;;25.80;99.90;;;;;;5062564;28;19963;-75
2022/05/17 09:20:50;;;;;;;;;;;25.70;99.90;;;;;;5069549;28;19924;-77
2022/05/17 09:23:17;;;;;;;;;;;25.50;99.90;;;;;;5071973;28;20350;-77
2022/05/17 09:25:45;;;;;;;;;;;25.30;99.90;;;;;;5054446;28;19929;-79
2022/05/17 09:28:13;;;;;;;;;;;25.30;99.90;;;;;;5059446;28;20076;-77
2022/05/17 09:30:40;;;;;;;;;;;25.10;99.90;;;;;;5056994;28;19982;-77
2022/05/17 09:33:09;;;;;;;;;;;24.90;99.90;;;;;;5060969;28;20395;-76
2022/05/17 09:35:41;;;;;;;;;;;24.80;99.90;;;;;;5062524;28;19933;-76
2022/05/17 09:38:09;;;;;;;;;;;24.60;99.90;;;;;;5057891;28;19924;-76
2022/05/17 09:40:37;;;;;;;;;;;24.40;99.90;;;;;;5032569;28;20435;-76
2022/05/17 09:43:08;;;;;;;;;;;24.20;99.90;;;;;;5059702;28;19925;-76
2022/05/17 09:45:40;;;;;;;;;;;24.10;99.90;;;;;;5059074;28;19928;-76
2022/05/17 09:48:10;;;;;;;;;;;24.00;99.90;;;;;;5049684;28;19925;-76
2022/05/17 09:53:39;;;;;;;;;;;23.90;99.90;;;;;;5051295;28;20354;-75
2022/05/17 09:56:06;;;;;;;;;;;23.90;99.90;;;;;;5052294;28;20410;-75
2022/05/17 09:58:34;;;;;;;;;;;23.80;99.90;;;;;;5051500;28;19928;-76
2022/05/17 10:01:07;;;;;;;;;;;23.60;99.90;;;;;;5057443;28;19925;-75
2022/05/17 10:03:36;;;;;;;;;;;23.50;99.90;;;;;;5050382;28;19928;-75
2022/05/17 10:06:04;;;;;;;;;;;23.50;99.90;;;;;;5046711;28;19932;-76
2022/05/17 10:08:37;;;;;;;;;;;23.50;99.90;;;;;;5055562;28;20043;-76
2022/05/17 10:11:14;;;;;;;;;;;23.40;99.90;;;;;;5060409;28;20020;-75
2022/05/17 10:13:51;;;;;;;;;;;22.90;99.90;;;;;;5048054;28;19968;-76
2022/05/17 10:16:19;;;;;;;;;;;23.40;99.90;;;;;;5056183;28;20305;-76
2022/05/17 10:18:53;;;;;;;;;;;23.40;99.90;;;;;;5058712;28;20015;-76
2022/05/17 10:21:22;;;;;;;;;;;23.50;99.90;;;;;;5045361;28;19935;-75
2022/05/17 10:23:55;;;;;;;;;;;23.60;99.90;;;;;;5056683;28;19924;-76
2022/05/17 10:26:24;;;;;;;;;;;23.80;99.90;;;;;;5060200;28;19928;-77
2022/05/17 10:28:53;;;;;;;;;;;24.00;99.90;;;;;;5047764;28;19991;-75
2022/05/17 10:31:21;;;;;;;;;;;24.30;99.90;;;;;;5039411;28;19935;-77
2022/05/17 10:34:07;;;;;;;;;;;24.60;99.90;;;;;;5046381;28;19928;-77
2022/05/17 10:36:40;;;;;;;;;;;24.80;99.90;;;;;;5031538;28;19933;-75
2022/05/17 10:39:12;;;;;;;;;;;24.90;99.90;;;;;;5045592;28;19933;-75
2022/05/17 10:41:39;;;;;;;;;;;25.00;99.90;;;;;;5053409;28;19929;-74
2022/05/17 10:44:06;;;;;;;;;;;24.60;99.90;;;;;;5047326;28;19935;-75
2022/05/17 10:46:36;;;;;;;;;;;24.40;99.90;;;;;;5044111;28;19975;-74
2022/05/17 10:49:11;;;;;;;;;;;24.30;99.90;;;;;;5044891;28;20379;-74
2022/05/17 10:51:45;;;;;;;;;;;24.40;99.90;;;;;;5043895;28;19968;-75
2022/05/17 10:54:16;;;;;;;;;;;24.40;99.90;;;;;;5047422;28;19924;-75
2022/05/17 10:56:48;;;;;;;;;;;24.60;99.90;;;;;;5046998;28;19968;-75
2022/05/17 10:59:22;;;;;;;;;;;24.50;99.90;;;;;;5036038;28;19928;-74
2022/05/17 11:01:55;;;;;;;;;;;24.50;99.90;;;;;;5051412;28;19929;-75
2022/05/17 11:04:57;;;;;;;;;;;24.40;99.90;;;;;;5054582;28;19941;-77
2022/05/17 11:07:29;;;;;;;;;;;24.10;99.90;;;;;;5046115;28;19928;-77
2022/05/17 11:09:59;;;;;;;;;;;24.00;99.90;;;;;;5049435;28;19948;-77
2022/05/17 11:12:28;;;;;;;;;;;23.90;99.90;;;;;;5054231;28;20018;-77
2022/05/17 11:14:58;;;;;;;;;;;23.90;99.90;;;;;;5045033;28;20290;-78
2022/05/17 11:17:29;;;;;;;;;;;23.80;99.90;;;;;;5056233;28;19928;-77
2022/05/17 11:20:03;;;;;;;;;;;24.80;99.90;;;;;;5057418;28;19925;-78
2022/05/17 11:22:35;;;;;;;;;;;23.50;99.90;;;;;;5045001;28;19925;-77
2022/05/17 11:25:11;;;;;;;;;;;23.50;99.90;;;;;;5058773;28;19925;-77
2022/05/17 11:27:43;;;;;;;;;;;23.50;99.90;;;;;;5049775;28;19941;-78
2022/05/17 11:30:15;;;;;;;;;;;23.40;99.90;;;;;;5052971;28;19929;-79
2022/05/17 11:33:02;;;;;;;;;;;23.50;99.90;;;;;;5030880;28;20007;-79
2022/05/17 11:35:39;;;;;;;;;;;23.50;99.90;;;;;;5047473;28;19925;-78
2022/05/17 11:38:08;;;;;;;;;;;23.50;99.90;;;;;;5033050;28;19928;-77
2022/05/17 11:40:56;;;;;;;;;;;23.40;99.90;;;;;;5022034;28;19944;-76
2022/05/17 11:43:41;;;;;;;;;;;23.30;99.90;;;;;;5052299;28;20313;-77
2022/05/17 11:46:22;;;;;;;;;;;23.30;99.90;;;;;;5037568;28;19932;-78
2022/05/17 11:48:53;;;;;;;;;;;23.30;99.90;;;;;;5048147;28;19939;-77
2022/05/17 11:51:21;;;;;;;;;;;23.30;99.90;;;;;;5050367;28;20425;-77
2022/05/17 11:53:50;;;;;;;;;;;23.30;99.90;;;;;;5044569;28;19925;-78
2022/05/17 11:56:20;;;;;;;;;;;23.10;99.90;;;;;;5040195;28;20459;-79
2022/05/17 11:58:48;;;;;;;;;;;23.10;99.90;;;;;;5051412;28;20450;-79
2022/05/17 12:01:35;;;;;;;;;;;23.20;99.90;;;;;;5045305;28;19951;-79
2022/05/17 12:04:02;;;;;;;;;;;23.50;99.90;;;;;;5044478;28;19929;-79
2022/05/17 12:06:31;;;;;;;;;;;23.90;99.90;;;;;;5046679;28;19991;-79
2022/05/17 12:08:59;;;;;;;;;;;24.30;99.90;;;;;;5053454;28;20434;-79
2022/05/17 12:11:31;;;;;;;;;;;24.60;99.90;;;;;;5049783;28;19939;-79
2022/05/17 12:14:08;;;;;;;;;;;24.90;99.90;;;;;;5023381;28;19929;-79
2022/05/17 12:16:36;;;;;;;;;;;25.10;99.90;;;;;;5047355;28;19928;-78
2022/05/17 12:19:05;;;;;;;;;;;25.40;99.90;;;;;;5036532;28;19936;-78
2022/05/17 12:21:39;;;;;;;;;;;25.40;99.90;;;;;;5049751;28;19929;-78
2022/05/17 12:24:14;;;;;;;;;;;25.70;99.90;;;;;;5072426;28;19986;-78
2022/05/17 12:26:50;;;;;;;;;;;26.00;99.90;;;;;;5043949;28;19924;-78
2022/05/17 12:32:04;;;;;;;;;;;26.40;99.90;;;;;;5053019;28;19920;-78
2022/05/17 12:34:31;;;;;;;;;;;26.80;99.90;;;;;;5066654;28;19940;-78
2022/05/17 12:37:06;;;;;;;;;;;27.10;99.90;;;;;;5065731;28;20279;-79
2022/05/17 12:45:10;;;;;;;;;;;26.60;99.90;;;;;;5058924;28;19924;-79
2022/05/17 12:47:38;;;;;;;;;;;26.50;99.90;;;;;;5070803;28;19928;-78
2022/05/17 12:50:06;;;;;;;;;;;26.50;99.90;;;;;;5061688;28;19929;-77
2022/05/17 12:52:34;;;;;;;;;;;26.60;99.90;;;;;;5037842;28;20028;-77
2022/05/17 12:55:04;;;;;;;;;;;26.50;99.90;;;;;;5053753;28;20667;-78
2022/05/17 12:57:33;;;;;;;;;;;26.10;99.90;;;;;;5037242;28;20373;-78
2022/05/17 13:00:08;;;;;;;;;;;25.80;99.90;;;;;;5053666;28;19933;-76
2022/05/17 13:02:41;;;;;;;;;;;25.70;99.90;;;;;;5050530;28;20326;-76
2022/05/17 13:05:22;;;;;;;;;;;25.90;99.90;;;;;;5034939;28;19935;-76
2022/05/17 13:07:58;;;;;;;;;;;26.10;99.90;;;;;;5046208;28;19928;-75
2022/05/17 13:10:26;;;;;;;;;;;26.30;99.90;;;;;;5063597;28;19954;-76
2022/05/17 13:12:54;;;;;;;;;;;26.50;99.90;;;;;;5057320;28;19975;-76
2022/05/17 13:15:21;;;;;;;;;;;26.70;99.90;;;;;;5043580;28;19929;-76
2022/05/17 13:17:52;;;;;;;;;;;26.80;99.90;;;;;;5028698;28;20397;-76
2022/05/17 13:20:21;;;;;;;;;;;26.90;99.90;;;;;;5055518;28;19932;-77
2022/05/17 13:22:51;;;;;;;;;;;27.00;99.90;;;;;;5049525;28;19939;-78
2022/05/17 13:25:19;;;;;;;;;;;27.00;99.90;;;;;;5053588;28;19983;-77
2022/05/17 13:27:49;;;;;;;;;;;27.10;99.90;;;;;;5056268;28;19929;-77
2022/05/17 13:30:30;;;;;;;;;;;27.40;99.90;;;;;;5043843;28;20324;-77
2022/05/17 13:32:58;;;;;;;;;;;27.50;99.90;;;;;;5059738;28;19951;-77
2022/05/17 13:35:26;;;;;;;;;;;27.50;99.90;;;;;;5035739;28;19936;-77
2022/05/17 13:37:57;;;;;;;;;;;27.50;99.90;;;;;;5064875;28;19929;-78
2022/05/17 13:40:44;;;;;;;;;;;27.50;99.90;;;;;;5051950;28;19932;-79
2022/05/17 13:43:31;;;;;;;;;;;27.60;99.90;;;;;;5055331;28;20238;-79
2022/05/17 13:45:59;;;;;;;;;;;27.70;99.90;;;;;;5046282;28;20023;-79
2022/05/17 13:48:27;;;;;;;;;;;28.00;99.90;;;;;;5058176;28;19935;-79
2022/05/17 13:50:57;;;;;;;;;;;28.00;99.90;;;;;;5049000;28;20258;-79
2022/05/17 13:53:25;;;;;;;;;;;28.10;99.90;;;;;;5056580;28;19932;-78
2022/05/17 13:55:53;;;;;;;;;;;28.20;99.90;;;;;;5054533;28;20383;-78
2022/05/17 13:58:22;;;;;;;;;;;28.20;99.90;;;;;;5040933;28;19924;-78
2022/05/17 14:00:59;;;;;;;;;;;28.30;99.90;;;;;;5047686;28;20047;-78
2022/05/17 14:03:27;;;;;;;;;;;28.20;99.90;;;;;;5048717;28;20393;-79
2022/05/17 14:05:55;;;;;;;;;;;28.00;99.90;;;;;;5044564;28;19932;-78
2022/05/17 14:14:00;;;;;;;;;;;27.60;99.90;;;;;;5021947;28;19980;-78
2022/05/17 14:16:29;;;;;;;;;;;27.60;99.90;;;;;;5043850;28;19935;-79
2022/05/17 14:18:56;;;;;;;;;;;27.60;99.90;;;;;;5051895;28;20362;-78
2022/05/17 14:21:23;;;;;;;;;;;27.70;99.90;;;;;;5046094;28;19929;-77
2022/05/17 14:23:50;;;;;;;;;;;27.80;99.90;;;;;;5050660;28;20012;-76
2022/05/17 14:26:18;;;;;;;;;;;27.80;99.90;;;;;;5053494;28;19970;-76
2022/05/17 14:28:44;;;;;;;;;;;27.90;99.90;;;;;;5058355;28;19970;-77
2022/05/17 14:31:14;;;;;;;;;;;28.10;99.90;;;;;;5056176;28;19932;-76
2022/05/17 14:33:42;;;;;;;;;;;28.00;99.90;;;;;;5049209;28;20008;-76
2022/05/17 14:36:12;;;;;;;;;;;27.80;99.90;;;;;;5044706;28;20359;-77
2022/05/17 14:38:39;;;;;;;;;;;27.50;99.90;;;;;;5053277;28;20465;-76
2022/05/17 14:41:06;;;;;;;;;;;27.40;99.90;;;;;;5056976;28;20180;-76
2022/05/17 14:43:32;;;;;;;;;;;27.50;99.90;;;;;;5047559;28;19939;-76
2022/05/17 14:46:00;;;;;;;;;;;27.60;99.90;;;;;;5053854;28;20035;-77
2022/05/17 14:48:28;;;;;;;;;;;27.50;99.90;;;;;;5045482;28;19929;-77
2022/05/17 14:50:59;;;;;;;;;;;27.30;99.90;;;;;;5051970;28;19932;-77
2022/05/17 14:53:25;;;;;;;;;;;27.30;99.90;;;;;;5047813;28;19929;-77
2022/05/17 14:55:52;;;;;;;;;;;27.10;99.90;;;;;;5044307;28;20004;-77
2022/05/17 14:58:19;;;;;;;;;;;27.10;99.90;;;;;;5049194;28;19935;-75
2022/05/17 15:00:46;;;;;;;;;;;27.00;99.90;;;;;;5047900;28;19935;-75
2022/05/17 15:03:16;;;;;;;;;;;27.00;99.90;;;;;;5056070;28;19929;-76
2022/05/17 15:05:43;;;;;;;;;;;27.00;99.90;;;;;;5053019;28;19925;-76
2022/05/17 15:08:12;;;;;;;;;;;26.90;99.90;;;;;;5053178;28;20023;-76
2022/05/17 15:10:39;;;;;;;;;;;27.00;99.90;;;;;;5054610;28;19936;-76